Time;durP1;ratioP1;P1;durP2;ratioP2;P2;SDS_P1;SDS_P2;PMS_P1;PMS_P2;Temp;Humidity;BMP_temperature;BMP_pressure;BME280_temperature;BME280_humidity;BME280_pressure;Samples;Min_cycle;Max_cycle;Signal;HPM_P1;HPM_P2
2023/01/24 01:57:43;;;;;;;31.40;15.40;;;;;;;-2.33;100.00;101671.76;104102;1304;545519;-69
2023/01/24 02:00:15;;;;;;;26.50;12.80;;;;;;;-2.18;100.00;101677.83;106502;1285;22522;-69
2023/01/24 02:02:46;;;;;;;21.70;11.80;;;;;;;-1.98;100.00;101681.68;109623;1282;22409;-70
2023/01/24 02:05:16;;;;;;;25.40;10.80;;;;;;;-1.83;100.00;101683.20;109720;1285;22330;-70
2023/01/24 02:08:01;;;;;;;17.40;10.40;;;;;;;-1.74;100.00;101678.66;109896;1281;22693;-70
2023/01/24 02:11:37;;;;;;;19.30;11.10;;;;;;;-1.68;100.00;101681.61;109736;1278;231472;-70
2023/01/24 02:13:18;;;;;;;19.30;9.70;;;;;;;-1.55;100.00;101680.58;109931;1272;22711;-70
2023/01/24 02:16:05;;;;;;;17.30;10.10;;;;;;;-1.46;100.00;101677.19;110092;1278;23224;-70
2023/01/24 02:18:35;;;;;;;18.50;10.60;;;;;;;-1.41;100.00;101675.67;109885;1276;22472;-70
2023/01/24 02:21:04;;;;;;;18.80;11.10;;;;;;;-1.40;100.00;101673.63;109921;1278;22772;-70
2023/01/24 02:23:59;;;;;;;20.20;11.70;;;;;;;-1.32;100.00;101676.73;110014;1279;22320;-70
2023/01/24 02:26:28;;;;;;;19.00;11.30;;;;;;;-1.25;100.00;101674.75;110139;1275;22854;-70
2023/01/24 02:29:04;;;;;;;27.20;12.30;;;;;;;-1.26;100.00;101674.34;109914;1278;22957;-70
2023/01/24 02:31:55;;;;;;;19.60;11.00;;;;;;;-1.23;100.00;101673.94;110020;1279;22239;-70
2023/01/24 02:34:24;;;;;;;20.10;11.20;;;;;;;-1.16;100.00;101674.09;109911;1272;22442;-70
2023/01/24 02:37:13;;;;;;;19.00;10.20;;;;;;;-1.14;100.00;101676.61;109971;1278;22205;-70
2023/01/24 02:39:55;;;;;;;16.70;10.00;;;;;;;-1.16;100.00;101674.79;110038;1276;22264;-70
2023/01/24 02:42:28;;;;;;;19.90;9.90;;;;;;;-1.16;100.00;101671.05;110065;1276;22790;-70
2023/01/24 02:45:10;;;;;;;21.80;10.60;;;;;;;-1.15;100.00;101677.58;110043;1278;22279;-70
2023/01/24 02:47:41;;;;;;;18.40;10.40;;;;;;;-1.19;100.00;101676.19;109912;1279;22360;-70
2023/01/24 02:50:10;;;;;;;19.00;10.70;;;;;;;-1.24;100.00;101673.83;109896;1279;22252;-70
2023/01/24 02:55:26;;;;;;;21.20;10.80;;;;;;;-1.19;100.00;101673.83;109951;1264;23062;-70
2023/01/24 02:58:05;;;;;;;18.30;10.40;;;;;;;-1.23;100.00;101670.47;110001;1279;22324;-70
2023/01/24 03:00:37;;;;;;;17.70;10.10;;;;;;;-1.21;100.00;101671.55;109955;1274;22473;-70
2023/01/24 03:03:06;;;;;;;20.70;10.40;;;;;;;-1.21;100.00;101669.28;109973;1273;22350;-71
2023/01/24 03:06:10;;;;;;;20.10;10.80;;;;;;;-1.25;100.00;101669.50;110007;1278;22162;-70
2023/01/24 03:08:33;;;;;;;18.80;10.10;;;;;;;-1.23;100.00;101663.89;107371;1278;26835;-70
2023/01/24 03:11:03;;;;;;;22.20;10.70;;;;;;;-1.27;100.00;101667.31;107426;1272;25310;-69
2023/01/24 03:35:55;;;;;;;22.90;11.30;;;;;;;-1.51;100.00;101660.77;107477;1279;22546;-70
2023/01/24 03:41:13;;;;;;;22.90;11.80;;;;;;;-1.49;100.00;101656.98;107291;1274;24400;-70
2023/01/24 03:43:46;;;;;;;23.30;11.90;;;;;;;-1.51;100.00;101657.41;107564;1275;23338;-70
2023/01/24 03:46:14;;;;;;;21.20;10.60;;;;;;;-1.48;100.00;101654.81;107369;1274;26538;-70
2023/01/24 03:48:50;;;;;;;27.00;11.20;;;;;;;-1.42;100.00;101653.35;107637;1270;22538;-70
2023/01/24 03:54:09;;;;;;;21.80;11.50;;;;;;;-1.51;100.00;101657.92;107591;1274;22652;-70
2023/01/24 03:56:59;;;;;;;21.70;11.60;;;;;;;-1.54;100.00;101654.41;107405;1276;25464;-69
2023/01/24 03:59:28;;;;;;;22.50;12.20;;;;;;;-1.51;100.00;101660.39;107407;1275;23162;-70
2023/01/24 04:01:56;;;;;;;22.10;11.50;;;;;;;-1.52;100.00;101659.23;107440;1275;25610;-70
2023/01/24 04:05:12;;;;;;;21.00;12.00;;;;;;;-1.55;100.00;101664.14;107400;1274;24407;-70
2023/01/24 04:07:15;;;;;;;24.00;12.30;;;;;;;-1.48;100.00;101668.91;110313;1272;23126;-71
2023/01/24 04:09:58;;;;;;;25.40;13.00;;;;;;;-1.49;100.00;101665.89;109625;1275;22562;-70
2023/01/24 04:12:27;;;;;;;23.10;11.80;;;;;;;-1.53;100.00;101665.08;107889;1269;25355;-70
2023/01/24 04:14:55;;;;;;;22.50;12.40;;;;;;;-1.53;100.00;101666.63;107453;1276;25493;-71
2023/01/24 04:17:24;;;;;;;27.10;12.90;;;;;;;-1.55;100.00;101665.61;107254;1275;22527;-70
2023/01/24 04:19:53;;;;;;;25.50;13.00;;;;;;;-1.61;100.00;101663.67;107835;1269;22535;-69
2023/01/24 04:22:22;;;;;;;25.00;13.20;;;;;;;-1.61;100.00;101661.56;107536;1273;25341;-70
2023/01/24 04:24:52;;;;;;;24.00;13.50;;;;;;;-1.61;100.00;101662.10;107352;1270;22801;-70
2023/01/24 04:27:22;;;;;;;22.80;12.70;;;;;;;-1.66;100.00;101666.14;107425;1275;25386;-70
2023/01/24 04:30:00;;;;;;;28.80;12.70;;;;;;;-1.67;100.00;101669.45;107589;1272;24424;-70
2023/01/24 04:32:30;;;;;;;24.30;13.30;;;;;;;-1.65;100.00;101665.14;107502;1273;26147;-70
2023/01/24 04:35:03;;;;;;;30.10;13.40;;;;;;;-1.69;100.00;101671.59;110238;1275;22264;-71
2023/01/24 04:37:52;;;;;;;24.70;12.40;;;;;;;-1.70;100.00;101665.31;110226;1271;23087;-70
2023/01/24 04:40:43;;;;;;;26.00;13.20;;;;;;;-1.77;100.00;101669.45;110202;1275;22453;-70
2023/01/24 04:43:12;;;;;;;24.00;12.80;;;;;;;-1.81;100.00;101669.77;110092;1276;22352;-70
2023/01/24 04:45:42;;;;;;;22.90;12.50;;;;;;;-1.81;100.00;101675.21;110164;1273;22207;-70
2023/01/24 04:48:13;;;;;;;23.50;11.90;;;;;;;-1.83;100.00;101676.50;110201;1275;22478;-70
2023/01/24 04:50:41;;;;;;;25.60;12.40;;;;;;;-1.87;100.00;101674.02;110171;1276;22742;-70
2023/01/24 04:53:10;;;;;;;22.90;13.30;;;;;;;-1.90;100.00;101674.30;110250;1273;22876;-70
2023/01/24 04:55:39;;;;;;;23.20;12.60;;;;;;;-1.94;100.00;101672.38;110165;1275;22508;-70
2023/01/24 04:58:08;;;;;;;23.10;14.10;;;;;;;-1.96;100.00;101678.10;110377;1275;23271;-70
2023/01/24 05:00:36;;;;;;;26.80;13.50;;;;;;;-1.92;100.00;101681.27;110166;1269;22411;-69
2023/01/24 05:03:08;;;;;;;24.90;14.20;;;;;;;-1.94;100.00;101681.98;110395;1275;22462;-70
2023/01/24 05:05:37;;;;;;;22.30;12.90;;;;;;;-1.97;100.00;101684.93;110277;1276;22402;-70
2023/01/24 05:08:05;;;;;;;22.70;12.30;;;;;;;-1.95;100.00;101683.20;110188;1275;22382;-70
2023/01/24 05:10:38;;;;;;;26.10;14.00;;;;;;;-1.94;100.00;101682.50;110258;1275;22283;-72
2023/01/24 05:13:06;;;;;;;25.10;13.10;;;;;;;-1.99;100.00;101687.24;110404;1276;22298;-70
2023/01/24 05:15:35;;;;;;;24.80;13.50;;;;;;;-2.07;100.00;101684.98;110187;1274;22798;-70
2023/01/24 05:18:03;;;;;;;24.70;12.70;;;;;;;-2.07;100.00;101684.27;110436;1274;22561;-70
2023/01/24 05:20:32;;;;;;;24.10;13.50;;;;;;;-2.02;100.00;101681.72;110315;1275;22193;-69
2023/01/24 05:23:01;;;;;;;27.10;13.50;;;;;;;-2.00;100.00;101683.11;110394;1275;22267;-69
2023/01/24 05:25:31;;;;;;;27.10;14.40;;;;;;;-2.02;100.00;101685.39;110282;1274;23231;-69
2023/01/24 05:28:00;;;;;;;23.20;12.70;;;;;;;-1.98;100.00;101682.39;110119;1276;22220;-69
2023/01/24 05:30:30;;;;;;;26.20;14.70;;;;;;;-1.93;100.00;101682.02;110146;1275;22258;-69
2023/01/24 05:33:03;;;;;;;27.30;13.50;;;;;;;-1.91;100.00;101684.00;110253;1271;24393;-69
2023/01/24 05:35:31;;;;;;;23.50;13.60;;;;;;;-1.89;100.00;101683.30;110185;1271;22323;-69
2023/01/24 08:07:59;;;;;;;45.30;23.10;;;;;;;-2.97;100.00;101729.36;104491;1305;544869;-69
2023/01/24 08:10:29;;;;;;;34.30;18.50;;;;;;;-2.78;100.00;101738.52;106759;1283;22583;-70
2023/01/24 08:12:58;;;;;;;30.40;14.30;;;;;;;-2.56;100.00;101736.46;107634;1272;22522;-69
2023/01/24 08:15:26;;;;;;;25.20;14.40;;;;;;;-2.39;100.00;101739.79;109837;1271;23307;-69
2023/01/24 08:17:56;;;;;;;28.30;14.50;;;;;;;-2.30;100.00;101737.02;110077;1271;22242;-69
2023/01/24 08:20:25;;;;;;;24.90;14.30;;;;;;;-2.21;100.00;101731.68;110003;1275;167730;-72
2023/01/24 08:22:54;;;;;;;23.50;13.40;;;;;;;-2.06;100.00;101729.92;110267;1269;22382;-69
2023/01/24 08:25:28;;;;;;;23.60;13.70;;;;;;;-1.91;100.00;101734.96;110272;1269;22311;-70
2023/01/24 08:27:56;;;;;;;24.00;13.20;;;;;;;-1.84;100.00;101735.12;110259;1273;22367;-69
2023/01/24 08:30:24;;;;;;;28.00;15.00;;;;;;;-1.79;100.00;101735.02;110251;1276;22590;-71
2023/01/24 08:33:02;;;;;;;26.10;13.30;;;;;;;-1.71;100.00;101732.85;110286;1276;22282;-69
2023/01/24 08:35:31;;;;;;;26.70;14.40;;;;;;;-1.64;100.00;101735.88;110288;1271;22477;-69
2023/01/24 08:37:59;;;;;;;27.70;14.60;;;;;;;-1.60;100.00;101729.31;110287;1273;22430;-69
2023/01/24 08:40:28;;;;;;;28.70;14.90;;;;;;;-1.61;100.00;101728.64;110246;1275;22336;-69
2023/01/24 08:43:02;;;;;;;27.00;15.40;;;;;;;-1.59;100.00;101721.58;110324;1274;22212;-69
2023/01/24 08:45:30;;;;;;;26.20;14.40;;;;;;;-1.59;100.00;101724.25;110257;1268;22557;-69
2023/01/24 08:47:59;;;;;;;25.00;14.10;;;;;;;-1.61;100.00;101721.16;110269;1268;22210;-70
2023/01/24 08:50:28;;;;;;;26.10;15.20;;;;;;;-1.62;100.00;101719.81;110229;1272;22215;-69
2023/01/24 08:52:57;;;;;;;28.60;15.50;;;;;;;-1.60;100.00;101720.23;110236;1275;22408;-69
2023/01/24 08:55:25;;;;;;;24.80;15.20;;;;;;;-1.63;100.00;101717.15;110267;1268;22244;-69
2023/01/24 08:58:00;;;;;;;27.00;14.40;;;;;;;-1.60;100.00;101717.50;110246;1275;22441;-69
2023/01/24 09:00:29;;;;;;;30.10;15.10;;;;;;;-1.59;100.00;101710.99;110267;1272;22282;-69
2023/01/24 09:03:00;;;;;;;28.40;15.40;;;;;;;-1.59;100.00;101709.06;110312;1268;22243;-70
2023/01/24 09:05:29;;;;;;;25.00;14.60;;;;;;;-1.49;100.00;101704.52;110267;1273;22428;-69
2023/01/24 09:07:58;;;;;;;26.50;15.60;;;;;;;-1.39;100.00;101702.66;110305;1272;22271;-71
2023/01/24 09:10:26;;;;;;;24.40;13.90;;;;;;;-1.37;100.00;101696.10;110219;1269;22489;-70
2023/01/24 09:12:55;;;;;;;26.20;14.40;;;;;;;-1.40;100.00;101695.33;110297;1270;22331;-69
2023/01/24 09:15:23;;;;;;;31.20;14.60;;;;;;;-1.41;100.00;101695.28;110284;1274;22354;-70
2023/01/24 09:17:52;;;;;;;25.60;14.80;;;;;;;-1.42;100.00;101696.73;110302;1268;22267;-72
2023/01/24 09:20:21;;;;;;;29.50;15.10;;;;;;;-1.49;100.00;101698.52;110295;1274;23148;-71
2023/01/24 09:22:49;;;;;;;27.20;14.70;;;;;;;-1.53;100.00;101694.30;110309;1274;22201;-71
2023/01/24 09:25:18;;;;;;;25.00;13.50;;;;;;;-1.55;100.00;101691.24;110343;1276;23237;-70
2023/01/24 09:27:52;;;;;;;24.80;15.60;;;;;;;-1.57;100.00;101694.60;110285;1276;22330;-70
2023/01/24 09:30:22;;;;;;;26.30;15.40;;;;;;;-1.59;100.00;101693.42;110310;1268;22401;-71
2023/01/24 09:32:52;;;;;;;26.40;13.50;;;;;;;-1.54;100.00;101686.36;110354;1276;22406;-71
2023/01/24 09:35:20;;;;;;;23.70;13.50;;;;;;;-1.43;100.00;101688.52;110242;1276;23092;-71
2023/01/24 09:37:51;;;;;;;24.90;14.10;;;;;;;-1.39;100.00;101685.30;110289;1273;22463;-71
2023/01/24 09:40:40;;;;;;;26.00;14.10;;;;;;;-1.38;100.00;101686.28;110284;1271;22383;-71
2023/01/24 09:43:23;;;;;;;28.80;14.30;;;;;;;-1.32;100.00;101686.23;110273;1273;22397;-71
2023/01/24 09:45:57;;;;;;;27.70;13.90;;;;;;;-1.25;100.00;101687.48;110310;1271;22260;-71
2023/01/24 09:48:25;;;;;;;24.90;14.50;;;;;;;-1.28;100.00;101685.61;110162;1271;22433;-71
2023/01/24 09:50:57;;;;;;;23.20;14.60;;;;;;;-1.35;100.00;101682.51;110225;1272;23664;-71
2023/01/24 09:53:30;;;;;;;25.10;14.20;;;;;;;-1.36;100.00;101675.68;110285;1277;22726;-70
2023/01/24 09:55:59;;;;;;;23.30;15.20;;;;;;;-1.34;100.00;101684.23;110182;1269;22350;-70
2023/01/24 09:58:43;;;;;;;24.60;14.40;;;;;;;-1.38;100.00;101683.06;110331;1274;22506;-71
2023/01/24 10:01:14;;;;;;;26.30;13.70;;;;;;;-1.41;100.00;101680.83;110222;1274;22292;-71
2023/01/24 10:03:42;;;;;;;24.20;13.00;;;;;;;-1.38;100.00;101679.83;109279;1270;24174;-70
2023/01/24 10:06:16;;;;;;;24.80;14.80;;;;;;;-1.38;100.00;101674.62;107647;1276;23302;-70
2023/01/24 10:08:55;;;;;;;24.40;14.00;;;;;;;-1.43;100.00;101674.42;107628;1273;24198;-72
2023/01/24 10:11:29;;;;;;;23.90;12.90;;;;;;;-1.44;100.00;101674.54;107497;1272;24350;-72
2023/01/24 10:14:28;;;;;;;24.30;13.50;;;;;;;-1.41;100.00;101672.64;107533;1275;23930;-72
2023/01/24 10:17:25;;;;;;;21.70;12.90;;;;;;;-1.51;100.00;101667.56;107481;1270;24190;-71
2023/01/24 10:20:07;;;;;;;18.40;11.20;;;;;;;-1.61;100.00;101663.55;109443;1276;22290;-72
2023/01/24 10:22:50;;;;;;;20.70;11.60;;;;;;;-1.59;100.00;101656.77;110283;1276;22267;-72
2023/01/24 10:25:24;;;;;;;22.80;12.60;;;;;;;-1.60;100.00;101654.11;110144;1276;23108;-73
2023/01/24 10:27:55;;;;;;;27.10;14.30;;;;;;;-1.60;100.00;101650.09;110317;1276;22414;-70
2023/01/24 10:30:30;;;;;;;30.10;15.10;;;;;;;-1.60;100.00;101650.06;110111;1272;22209;-70
2023/01/24 10:33:00;;;;;;;21.70;13.40;;;;;;;-1.52;100.00;101649.85;110335;1277;22247;-70
2023/01/24 10:35:30;;;;;;;24.70;14.10;;;;;;;-1.44;100.00;101649.41;110261;1277;22811;-70
2023/01/24 10:38:00;;;;;;;24.20;13.30;;;;;;;-1.38;100.00;101647.96;110261;1273;22356;-70
2023/01/24 10:40:32;;;;;;;25.20;14.90;;;;;;;-1.39;100.00;101645.05;110296;1276;23171;-70
2023/01/24 10:43:05;;;;;;;26.40;15.40;;;;;;;-1.37;100.00;101639.83;110361;1277;22964;-73
2023/01/24 10:45:33;;;;;;;24.10;14.30;;;;;;;-1.32;100.00;101640.95;109977;1272;22583;-70
2023/01/24 10:48:16;;;;;;;23.90;14.90;;;;;;;-1.26;100.00;101638.05;107588;1268;22775;-71
2023/01/24 10:50:45;;;;;;;27.50;16.10;;;;;;;-1.25;100.00;101634.17;107654;1271;23242;-72
2023/01/24 10:53:22;;;;;;;28.50;16.40;;;;;;;-1.29;100.00;101635.96;107627;1276;22567;-71
2023/01/24 10:56:00;;;;;;;27.10;15.30;;;;;;;-1.27;100.00;101627.04;107538;1270;22936;-71
2023/01/24 10:58:36;;;;;;;26.90;15.30;;;;;;;-1.29;100.00;101627.25;109491;1277;22305;-73
2023/01/24 11:01:08;;;;;;;28.00;17.20;;;;;;;-1.33;100.00;101627.48;108032;1276;22644;-71
2023/01/24 11:03:38;;;;;;;33.70;17.70;;;;;;;-1.35;100.00;101626.77;107753;1275;22777;-71
2023/01/24 11:06:23;;;;;;;30.80;17.80;;;;;;;-1.32;100.00;101618.13;107469;1274;22559;-71
2023/01/24 11:09:00;;;;;;;28.70;16.70;;;;;;;-1.32;100.00;101615.34;108692;1276;22571;-72
2023/01/24 11:11:31;;;;;;;31.70;18.20;;;;;;;-1.36;100.00;101612.98;107643;1274;22530;-71
2023/01/24 11:14:02;;;;;;;34.10;18.10;;;;;;;-1.42;100.00;101608.93;108441;1276;25365;-72
2023/01/24 11:16:42;;;;;;;34.00;18.40;;;;;;;-1.39;100.00;101610.65;107767;1269;22556;-72
2023/01/24 11:19:27;;;;;;;28.60;16.80;;;;;;;-1.34;100.00;101611.88;110262;1272;22196;-72
2023/01/24 11:22:18;;;;;;;28.90;17.80;;;;;;;-1.38;100.00;101607.18;110330;1274;22246;-72
2023/01/24 11:24:46;;;;;;;34.70;18.00;;;;;;;-1.47;100.00;101610.74;110179;1276;23593;-72
2023/01/24 11:27:15;;;;;;;30.80;16.80;;;;;;;-1.43;100.00;101605.70;110254;1276;22391;-73
2023/01/24 11:29:44;;;;;;;31.30;16.50;;;;;;;-1.45;100.00;101599.86;110308;1273;22819;-73
2023/01/24 11:32:19;;;;;;;26.60;16.00;;;;;;;-1.48;100.00;101598.15;110197;1275;22296;-73
2023/01/24 11:35:03;;;;;;;23.70;13.90;;;;;;;-1.44;100.00;101595.63;110121;1276;22228;-73
2023/01/24 11:38:02;;;;;;;27.20;16.20;;;;;;;-1.48;100.00;101598.70;110225;1276;22291;-73
2023/01/24 11:40:59;;;;;;;26.10;15.80;;;;;;;-1.51;100.00;101589.71;110353;1270;22435;-71
2023/01/24 11:44:10;;;;;;;25.70;15.40;;;;;;;-1.50;100.00;101590.88;110130;1269;24583;-69
2023/01/24 11:46:57;;;;;;;27.50;15.80;;;;;;;-1.49;100.00;101586.70;110109;1276;23037;-72
2023/01/24 11:49:39;;;;;;;24.40;14.40;;;;;;;-1.46;100.00;101592.10;110225;1268;22336;-73
2023/01/24 11:52:33;;;;;;;27.60;15.10;;;;;;;-1.42;100.00;101591.55;110264;1275;23271;-73
2023/01/24 11:55:03;;;;;;;25.90;15.60;;;;;;;-1.45;100.00;101593.39;110227;1274;22232;-72
2023/01/24 11:58:19;;;;;;;22.00;13.40;;;;;;;-1.47;100.00;101586.14;110228;1276;23031;-72
2023/01/24 12:01:12;;;;;;;23.00;13.10;;;;;;;-1.35;100.00;101586.75;109827;1273;23526;-72
2023/01/24 12:04:09;;;;;;;23.80;14.00;;;;;;;-1.31;100.00;101587.08;110212;1272;22386;-71
2023/01/24 12:06:53;;;;;;;21.50;12.60;;;;;;;-1.29;100.00;101588.29;110304;1270;22286;-71
2023/01/24 12:09:30;;;;;;;23.20;14.00;;;;;;;-1.32;100.00;101590.34;110188;1271;23195;-73
2023/01/24 12:12:11;;;;;;;25.30;14.70;;;;;;;-1.32;100.00;101588.70;110084;1271;22394;-71
2023/01/24 12:14:43;;;;;;;21.80;14.50;;;;;;;-1.31;100.00;101588.85;110221;1276;22497;-72
2023/01/24 12:17:36;;;;;;;24.40;13.70;;;;;;;-1.34;100.00;101588.04;110384;1276;22430;-71
2023/01/24 12:20:17;;;;;;;27.90;15.80;;;;;;;-1.29;100.00;101589.50;110286;1276;22330;-71
2023/01/24 12:23:15;;;;;;;20.50;12.30;;;;;;;-1.25;100.00;101595.89;110280;1270;22445;-71
2023/01/24 12:25:45;;;;;;;29.00;15.60;;;;;;;-1.25;100.00;101592.52;110235;1276;23328;-71
2023/01/24 12:28:17;;;;;;;26.20;15.50;;;;;;;-1.24;100.00;101595.98;110164;1269;22482;-72
2023/01/24 12:30:52;;;;;;;28.30;15.70;;;;;;;-1.19;100.00;101592.79;110255;1270;22215;-71
2023/01/24 12:33:58;;;;;;;26.20;15.10;;;;;;;-1.13;100.00;101591.50;110310;1268;22519;-72
2023/01/24 12:36:34;;;;;;;26.00;15.00;;;;;;;-1.16;100.00;101591.02;109809;1273;22515;-71
2023/01/24 12:39:10;;;;;;;25.90;15.60;;;;;;;-1.22;100.00;101590.58;107683;1276;23388;-71
2023/01/24 12:41:42;;;;;;;24.60;14.80;;;;;;;-1.25;100.00;101593.55;107737;1275;25297;-70
2023/01/24 12:44:24;;;;;;;26.40;15.20;;;;;;;-1.23;100.00;101597.83;107463;1270;22531;-70
2023/01/24 12:47:02;;;;;;;27.50;15.40;;;;;;;-1.21;100.00;101593.38;107467;1277;24233;-70
2023/01/24 12:49:34;;;;;;;27.40;16.40;;;;;;;-1.20;100.00;101596.61;107379;1273;25277;-70
2023/01/24 12:52:49;;;;;;;28.70;14.20;;;;;;;-1.22;100.00;101594.18;107266;1270;22708;-71
2023/01/24 12:55:25;;;;;;;26.60;16.00;;;;;;;-1.26;100.00;101593.50;107494;1270;22772;-70
2023/01/24 12:58:11;;;;;;;32.40;19.00;;;;;;;-1.28;100.00;101596.95;107377;1276;25233;-70
2023/01/24 13:01:11;;;;;;;29.20;19.70;;;;;;;-1.27;100.00;101598.89;107538;1276;22656;-71
2023/01/24 13:04:10;;;;;;;28.20;17.10;;;;;;;-1.22;100.00;101603.73;107487;1276;22564;-71
2023/01/24 13:07:01;;;;;;;28.10;17.10;;;;;;;-1.33;100.00;101599.01;107576;1275;22526;-70
2023/01/24 13:09:51;;;;;;;30.80;18.40;;;;;;;-1.43;100.00;101599.13;107632;1276;24407;-70
2023/01/24 13:12:21;;;;;;;32.80;17.90;;;;;;;-1.42;100.00;101597.07;107692;1276;23839;-70
2023/01/24 13:15:00;;;;;;;29.10;17.60;;;;;;;-1.45;100.00;101595.39;107653;1269;22555;-70
2023/01/24 13:17:44;;;;;;;27.40;16.70;;;;;;;-1.50;100.00;101603.35;107574;1275;22541;-71
2023/01/24 13:20:24;;;;;;;27.70;16.80;;;;;;;-1.55;100.00;101603.79;107583;1269;25393;-70
2023/01/24 13:22:59;;;;;;;29.30;17.10;;;;;;;-1.56;100.00;101600.48;107644;1276;22599;-70
2023/01/24 13:25:49;;;;;;;29.80;17.00;;;;;;;-1.55;100.00;101597.95;107584;1276;23280;-71
2023/01/24 13:28:27;;;;;;;34.00;18.60;;;;;;;-1.58;100.00;101595.90;107509;1275;24224;-70
2023/01/24 13:31:17;;;;;;;30.40;17.20;;;;;;;-1.63;100.00;101596.55;110276;1275;22226;-71
2023/01/24 13:33:49;;;;;;;32.50;19.50;;;;;;;-1.66;100.00;101592.38;110249;1276;23109;-71
2023/01/24 13:36:20;;;;;;;28.30;17.20;;;;;;;-1.57;100.00;101590.08;110286;1273;22229;-72
2023/01/24 13:38:49;;;;;;;32.90;19.00;;;;;;;-1.48;100.00;101588.67;110214;1276;22869;-70
2023/01/24 13:41:26;;;;;;;32.00;18.90;;;;;;;-1.45;100.00;101590.21;110093;1271;23668;-71
2023/01/24 13:44:03;;;;;;;31.80;19.40;;;;;;;-1.48;100.00;101585.20;110289;1276;22211;-71
2023/01/24 18:00:27;;;;;;;68.40;31.80;;;;;;;-3.54;100.00;101576.11;106825;1301;544940;-71
2023/01/24 18:02:56;;;;;;;61.00;29.00;;;;;;;-3.39;100.00;101579.91;109401;1276;22257;-71
2023/01/24 18:05:25;;;;;;;48.00;25.00;;;;;;;-3.19;100.00;101576.48;109442;1289;22259;-70
2023/01/24 18:07:53;;;;;;;47.10;23.90;;;;;;;-3.01;100.00;101575.91;109472;1288;22340;-70
2023/01/24 18:10:22;;;;;;;39.20;22.40;;;;;;;-2.86;100.00;101572.70;107357;1290;22638;-70
2023/01/24 18:12:51;;;;;;;37.60;21.20;;;;;;;-2.69;100.00;101573.77;106909;1282;24219;-70
2023/01/24 18:15:20;;;;;;;39.60;21.20;;;;;;;-2.57;100.00;101574.42;107573;1287;25384;-70
2023/01/24 18:18:08;;;;;;;40.70;22.10;;;;;;;-2.45;100.00;101573.00;106720;1282;24255;-70
2023/01/24 18:20:39;;;;;;;70.50;41.80;;;;;;;-2.37;100.00;101577.59;106709;1287;23295;-71
2023/01/24 18:23:08;;;;;;;41.40;24.00;;;;;;;-2.30;100.00;101571.73;106683;1287;26202;-70
2023/01/24 18:25:36;;;;;;;39.90;21.10;;;;;;;-2.29;100.00;101576.22;106624;1287;26769;-70
2023/01/24 18:28:06;;;;;;;38.90;21.20;;;;;;;-2.23;100.00;101578.94;106863;1287;23425;-70
2023/01/24 18:30:37;;;;;;;36.60;21.80;;;;;;;-2.19;100.00;101573.83;108067;1276;23468;-71
2023/01/24 18:33:06;;;;;;;36.80;22.00;;;;;;;-2.11;100.00;101573.34;107329;1279;24369;-71
2023/01/24 18:35:34;;;;;;;37.40;21.80;;;;;;;-2.12;100.00;101580.16;107325;1273;24307;-71
2023/01/24 18:38:03;;;;;;;35.40;20.90;;;;;;;-2.14;100.00;101578.34;107384;1279;25030;-71
2023/01/24 18:40:31;;;;;;;38.90;22.10;;;;;;;-2.17;100.00;101576.13;107509;1277;22553;-71
2023/01/24 18:43:00;;;;;;;38.20;21.60;;;;;;;-2.10;100.00;101577.46;108872;1280;22187;-71
2023/01/24 18:45:30;;;;;;;35.90;21.50;;;;;;;-2.00;100.00;101577.17;109989;1280;22448;-71
2023/01/24 18:47:59;;;;;;;34.70;21.50;;;;;;;-1.90;100.00;101579.41;109169;1279;24311;-70
2023/01/24 18:50:27;;;;;;;36.10;20.80;;;;;;;-1.87;100.00;101577.61;107407;1280;23412;-70
2023/01/24 18:52:58;;;;;;;34.20;21.30;;;;;;;-1.89;100.00;101580.09;107306;1280;25476;-70
2023/01/24 18:55:26;;;;;;;35.70;20.60;;;;;;;-1.92;100.00;101577.88;107059;1281;22716;-69
2023/01/24 18:57:55;;;;;;;35.30;19.90;;;;;;;-1.90;100.00;101575.55;107240;1280;22599;-70
2023/01/24 19:00:28;;;;;;;33.80;19.80;;;;;;;-1.89;100.00;101574.58;107105;1280;23321;-71
2023/01/24 19:02:55;;;;;;;32.90;19.60;;;;;;;-1.91;100.00;101576.31;109229;1279;25307;-71
2023/01/24 19:05:24;;;;;;;34.80;19.70;;;;;;;-1.98;100.00;101568.84;107304;1279;22533;-70
2023/01/24 19:07:52;;;;;;;34.00;20.40;;;;;;;-2.01;100.00;101572.11;107325;1277;23245;-70
2023/01/24 19:10:24;;;;;;;40.40;23.20;;;;;;;-2.06;100.00;101568.67;107542;1279;23319;-70
2023/01/24 19:12:52;;;;;;;35.80;22.10;;;;;;;-2.01;100.00;101573.24;107185;1279;22530;-71
2023/01/24 19:15:21;;;;;;;35.70;21.70;;;;;;;-1.95;100.00;101568.22;107309;1279;25430;-71
2023/01/24 19:17:51;;;;;;;36.40;22.10;;;;;;;-1.95;100.00;101572.27;107200;1280;24225;-71
2023/01/24 19:20:19;;;;;;;35.10;22.10;;;;;;;-1.96;100.00;101577.05;106944;1276;25170;-70
2023/01/24 19:22:48;;;;;;;35.90;21.10;;;;;;;-1.97;100.00;101576.46;107077;1278;25373;-70
2023/01/24 19:25:16;;;;;;;34.00;21.10;;;;;;;-1.96;100.00;101570.79;107097;1280;22645;-70
2023/01/24 19:27:47;;;;;;;35.40;21.10;;;;;;;-1.94;100.00;101572.21;107294;1280;25328;-69
2023/01/24 19:30:16;;;;;;;39.30;22.60;;;;;;;-1.95;100.00;101568.27;107364;1272;23457;-69
2023/01/24 19:32:49;;;;;;;41.70;23.80;;;;;;;-1.98;100.00;101571.38;107170;1273;24042;-72
2023/01/24 19:35:19;;;;;;;35.60;22.50;;;;;;;-2.00;100.00;101570.29;107249;1280;22652;-70
2023/01/24 19:37:51;;;;;;;38.90;21.90;;;;;;;-1.98;100.00;101570.98;107299;1280;25323;-70
2023/01/24 19:40:20;;;;;;;33.00;20.90;;;;;;;-1.93;100.00;101573.36;107125;1279;22547;-70
2023/01/24 19:42:49;;;;;;;32.90;21.50;;;;;;;-1.96;100.00;101570.95;107253;1279;22586;-71
2023/01/24 19:45:17;;;;;;;34.40;19.50;;;;;;;-2.01;100.00;101571.58;107297;1280;23380;-71
2023/01/24 19:47:45;;;;;;;37.20;22.40;;;;;;;-2.06;100.00;101572.45;107271;1273;22571;-71
2023/01/24 19:50:15;;;;;;;37.30;21.00;;;;;;;-2.05;100.00;101572.36;109982;1280;23154;-71
2023/01/24 19:52:44;;;;;;;34.90;21.00;;;;;;;-1.99;100.00;101575.14;109990;1280;23055;-71
2023/01/24 19:55:12;;;;;;;33.90;19.70;;;;;;;-1.97;100.00;101579.23;109973;1280;23490;-71
2023/01/24 19:57:41;;;;;;;36.10;21.00;;;;;;;-2.02;100.00;101575.79;109982;1273;22978;-72
2023/01/24 20:00:11;;;;;;;34.50;20.40;;;;;;;-2.04;100.00;101576.02;110004;1257;22295;-71
2023/01/24 20:02:44;;;;;;;37.70;20.40;;;;;;;-2.04;100.00;101578.81;110004;1280;23373;-71
2023/01/24 20:05:12;;;;;;;34.60;20.10;;;;;;;-1.99;100.00;101579.11;109942;1280;22679;-71
2023/01/24 20:07:44;;;;;;;34.20;21.20;;;;;;;-1.97;100.00;101572.64;109991;1280;22230;-71
2023/01/24 20:10:14;;;;;;;33.20;21.30;;;;;;;-1.98;100.00;101575.79;110019;1280;22441;-71
2023/01/24 20:12:43;;;;;;;37.20;21.90;;;;;;;-2.03;100.00;101578.70;109985;1280;22318;-71
2023/01/24 20:15:11;;;;;;;38.40;22.90;;;;;;;-2.04;100.00;101573.70;109999;1281;22253;-71
2023/01/24 20:17:40;;;;;;;34.90;21.40;;;;;;;-1.97;100.00;101573.93;109868;1279;22411;-71
2023/01/24 20:20:09;;;;;;;39.40;19.90;;;;;;;-1.87;100.00;101578.50;109998;1280;22304;-71
2023/01/24 20:22:38;;;;;;;33.60;19.20;;;;;;;-1.87;100.00;101574.02;109996;1280;22423;-72
2023/01/24 20:25:07;;;;;;;36.40;19.70;;;;;;;-1.90;100.00;101574.27;109982;1280;22225;-71
2023/01/24 20:27:48;;;;;;;31.30;18.60;;;;;;;-1.93;100.00;101570.52;109954;1280;22287;-71
2023/01/24 20:30:18;;;;;;;33.20;19.20;;;;;;;-1.89;100.00;101573.31;109959;1281;22880;-72
2023/01/24 20:32:46;;;;;;;29.90;18.10;;;;;;;-1.83;100.00;101576.46;109960;1280;22189;-72
2023/01/24 20:35:17;;;;;;;33.50;19.60;;;;;;;-1.78;100.00;101573.32;109915;1279;22209;-71
2023/01/24 20:37:47;;;;;;;36.60;19.80;;;;;;;-1.79;100.00;101571.30;109914;1281;22243;-71